Time;durP1;ratioP1;P1;durP2;ratioP2;P2;SDS_P1;SDS_P2;PMS_P1;PMS_P2;Temp;Humidity;BMP_temperature;BMP_pressure;BME280_temperature;BME280_humidity;BME280_pressure;Samples;Min_cycle;Max_cycle;Signal;HPM_P1;HPM_P2
2022/09/17 00:00:33;;;;;;;0.85;0.85;;;;;;;9.89;100.00;100522.53;7394029;19;20033;-62
2022/09/17 00:03:00;;;;;;;4.32;0.73;;;;;;;9.67;100.00;100530.13;7396255;19;20014;-62
2022/09/17 00:05:26;;;;;;;2.58;0.93;;;;;;;9.45;100.00;100529.34;7392470;19;20017;-61
2022/09/17 00:07:52;;;;;;;2.83;1.33;;;;;;;9.33;100.00;100525.41;7393205;19;20024;-62
2022/09/17 00:10:19;;;;;;;0.40;0.40;;;;;;;9.53;100.00;100533.44;7392204;19;20361;-62
2022/09/17 00:12:46;;;;;;;1.48;1.13;;;;;;;9.43;100.00;100524.22;7394622;19;20019;-62
2022/09/17 00:15:12;;;;;;;13.50;1.02;;;;;;;9.62;100.00;100527.91;7393058;19;20006;-62
2022/09/17 00:17:38;;;;;;;0.90;0.90;;;;;;;9.73;100.00;100525.53;7393263;19;20017;-62
2022/09/17 00:20:09;;;;;;;0.65;0.65;;;;;;;9.99;100.00;100526.16;7392597;19;20010;-62
2022/09/17 00:22:36;;;;;;;0.83;0.63;;;;;;;9.90;100.00;100518.53;7394012;19;20023;-62
2022/09/17 00:25:04;;;;;;;0.50;0.50;;;;;;;9.54;100.00;100521.06;7391994;19;20014;-62
2022/09/17 00:27:31;;;;;;;1.38;1.20;;;;;;;9.31;100.00;100524.28;7395118;19;20066;-62
2022/09/17 00:29:57;;;;;;;3.33;1.23;;;;;;;9.49;100.00;100521.63;7393066;19;20021;-61
2022/09/17 00:32:23;;;;;;;0.47;0.47;;;;;;;9.74;100.00;100522.31;7394975;19;20451;-62
2022/09/17 00:34:51;;;;;;;0.38;0.38;;;;;;;9.68;100.00;100521.31;7390668;19;20030;-61
2022/09/17 00:37:18;;;;;;;1.00;0.80;;;;;;;9.57;100.00;100520.16;7392584;19;20491;-62
2022/09/17 00:39:44;;;;;;;1.15;0.85;;;;;;;9.42;100.00;100519.13;7391797;19;20018;-61
2022/09/17 00:42:11;;;;;;;0.85;0.85;;;;;;;9.36;100.00;100529.25;7393357;19;20027;-62
2022/09/17 00:44:51;;;;;;;0.57;0.57;;;;;;;9.50;100.00;100529.53;7390431;19;20015;-62
2022/09/17 00:47:33;;;;;;;0.50;0.50;;;;;;;9.63;100.00;100526.69;7391841;19;20031;-62
2022/09/17 00:50:09;;;;;;;1.67;0.73;;;;;;;9.28;100.00;100522.41;7392147;19;20010;-61
2022/09/17 00:52:45;;;;;;;0.80;0.80;;;;;;;9.73;100.00;100528.31;7394695;19;20010;-61
2022/09/17 00:55:25;;;;;;;0.68;0.68;;;;;;;9.83;100.00;100524.38;7392033;19;20474;-62
2022/09/17 00:57:55;;;;;;;1.05;1.05;;;;;;;9.45;100.00;100523.78;7391477;19;20635;-62
2022/09/17 01:00:21;;;;;;;0.55;0.55;;;;;;;9.68;100.00;100528.91;7391468;19;20019;-62
2022/09/17 01:02:48;;;;;;;1.55;0.95;;;;;;;9.55;100.00;100528.94;7394868;19;20074;-62
2022/09/17 01:05:15;;;;;;;1.30;1.23;;;;;;;9.41;100.00;100525.91;7392545;19;20558;-61
2022/09/17 01:08:02;;;;;;;2.05;0.80;;;;;;;9.46;100.00;100533.69;7391444;19;20368;-62
2022/09/17 01:10:44;;;;;;;1.27;0.75;;;;;;;9.52;100.00;100529.09;7388359;19;20014;-62
2022/09/17 01:13:30;;;;;;;0.63;0.63;;;;;;;9.40;100.00;100521.59;7393561;19;20010;-62
2022/09/17 01:16:13;;;;;;;1.35;1.25;;;;;;;9.19;100.00;100528.66;7389347;19;20022;-63
2022/09/17 01:18:51;;;;;;;4.68;1.52;;;;;;;8.58;100.00;100531.09;7390375;19;20027;-61
2022/09/17 01:21:58;;;;;;;1.42;0.75;;;;;;;9.32;100.00;100534.16;7391817;19;20015;-62
2022/09/17 01:24:51;;;;;;;0.68;0.68;;;;;;;9.64;100.00;100531.03;7389257;19;20015;-62
2022/09/17 01:28:02;;;;;;;2.50;0.90;;;;;;;9.56;100.00;100527.72;7393196;19;20029;-62
2022/09/17 01:30:30;;;;;;;1.35;0.80;;;;;;;9.14;100.00;100535.56;7387727;19;20010;-61
2022/09/17 01:33:14;;;;;;;1.10;1.00;;;;;;;8.96;100.00;100526.28;7393184;19;20163;-62
2022/09/17 01:36:09;;;;;;;2.75;0.75;;;;;;;8.91;100.00;100533.19;7389210;19;20463;-61
2022/09/17 01:39:15;;;;;;;0.98;0.88;;;;;;;9.45;100.00;100529.34;7390724;19;20006;-62
2022/09/17 01:41:53;;;;;;;0.57;0.57;;;;;;;9.64;100.00;100528.25;7392220;19;20335;-62
2022/09/17 01:44:34;;;;;;;1.10;1.00;;;;;;;9.15;100.00;100528.78;7390645;19;20399;-62
2022/09/17 01:47:03;;;;;;;5.10;1.30;;;;;;;9.42;100.00;100533.03;7390617;19;20066;-62
2022/09/17 01:49:31;;;;;;;0.60;0.60;;;;;;;9.55;100.00;100530.97;7390453;19;20480;-62
2022/09/17 01:51:59;;;;;;;0.77;0.70;;;;;;;9.34;100.00;100526.16;7391454;19;20039;-62
2022/09/17 01:54:36;;;;;;;1.65;1.23;;;;;;;9.24;100.00;100528.09;7389699;19;20015;-61
2022/09/17 01:57:08;;;;;;;0.50;0.50;;;;;;;9.22;100.00;100532.53;7390216;19;20014;-62
2022/09/17 01:59:43;;;;;;;1.05;1.05;;;;;;;9.10;100.00;100534.91;7389476;19;20070;-62
2022/09/17 02:02:16;;;;;;;0.60;0.60;;;;;;;9.04;100.00;100533.94;7391400;19;20426;-62
2022/09/17 02:04:52;;;;;;;0.55;0.55;;;;;;;9.20;100.00;100532.22;7389764;19;20025;-62
2022/09/17 02:07:21;;;;;;;0.52;0.52;;;;;;;8.87;100.00;100532.53;7388284;19;20033;-62
2022/09/17 02:10:17;;;;;;;12.70;1.40;;;;;;;8.90;100.00;100530.84;7390260;19;20332;-62
2022/09/17 02:12:55;;;;;;;0.50;0.50;;;;;;;8.83;100.00;100537.44;7392159;19;20023;-61
2022/09/17 02:15:28;;;;;;;0.95;0.95;;;;;;;8.66;100.00;100536.00;7389429;19;20021;-62
2022/09/17 02:18:01;;;;;;;3.45;1.88;;;;;;;8.95;100.00;100538.59;7390238;19;20010;-62
2022/09/17 02:20:44;;;;;;;0.95;0.95;;;;;;;8.85;100.00;100529.41;7389590;19;20074;-62
2022/09/17 02:23:20;;;;;;;1.95;1.10;;;;;;;8.84;100.00;100543.72;7392244;19;20015;-62
2022/09/17 02:25:51;;;;;;;2.10;1.00;;;;;;;9.07;100.00;100535.78;7389109;19;20006;-62
2022/09/17 02:28:36;;;;;;;0.90;0.90;;;;;;;8.88;100.00;100542.41;7393388;19;20066;-62
2022/09/17 02:31:03;;;;;;;0.40;0.40;;;;;;;8.87;100.00;100538.09;7389210;19;20014;-62
2022/09/17 02:33:32;;;;;;;0.47;0.47;;;;;;;8.94;100.00;100543.38;7392528;19;20100;-62
2022/09/17 02:35:58;;;;;;;0.55;0.55;;;;;;;8.79;100.00;100553.41;7393721;19;20021;-62
2022/09/17 02:38:25;;;;;;;0.70;0.70;;;;;;;8.73;100.00;100544.09;7396807;19;20007;-62
2022/09/17 02:41:07;;;;;;;2.08;0.88;;;;;;;8.61;100.00;100553.22;7396816;19;20028;-62
2022/09/17 02:43:44;;;;;;;0.55;0.55;;;;;;;8.55;100.00;100549.44;7401146;19;20025;-62
2022/09/17 02:46:45;;;;;;;10.95;1.02;;;;;;;8.57;100.00;100549.78;7397522;19;20018;-62
2022/09/17 02:49:35;;;;;;;0.57;0.57;;;;;;;8.67;100.00;100540.31;7392595;19;20016;-61
2022/09/17 02:52:35;;;;;;;1.45;1.45;;;;;;;8.63;100.00;100547.22;7397086;19;20742;-62
2022/09/17 02:55:09;;;;;;;0.98;0.98;;;;;;;8.81;100.00;100545.44;7394720;19;20015;-62
2022/09/17 02:58:08;;;;;;;5.95;1.58;;;;;;;8.75;100.00;100543.66;7395709;19;20488;-62
2022/09/17 03:00:35;;;;;;;0.80;0.80;;;;;;;8.71;100.00;100537.41;7395697;19;20044;-62
2022/09/17 03:03:08;;;;;;;0.65;0.65;;;;;;;8.62;100.00;100549.19;7399961;19;20010;-62
2022/09/17 03:05:36;;;;;;;0.80;0.80;;;;;;;8.55;100.00;100552.22;7396372;19;20018;-62
2022/09/17 03:08:03;;;;;;;0.80;0.80;;;;;;;8.50;100.00;100557.53;7396147;19;20363;-62
2022/09/17 03:10:32;;;;;;;0.70;0.70;;;;;;;8.81;100.00;100556.53;7395156;19;20051;-62
2022/09/17 03:12:58;;;;;;;0.50;0.50;;;;;;;8.56;100.00;100548.22;7398905;19;20030;-62
2022/09/17 03:15:24;;;;;;;0.50;0.50;;;;;;;8.55;100.00;100560.56;7395209;19;20015;-62
2022/09/17 03:17:51;;;;;;;0.75;0.75;;;;;;;8.52;100.00;100561.44;7395862;19;20017;-62
2022/09/17 03:20:17;;;;;;;0.70;0.65;;;;;;;8.75;100.00;100552.75;7395363;19;20325;-62
2022/09/17 03:22:43;;;;;;;0.85;0.85;;;;;;;8.45;100.00;100550.53;7398007;19;20014;-62
2022/09/17 03:25:10;;;;;;;0.73;0.73;;;;;;;8.47;100.00;100552.91;7392991;19;20006;-62
2022/09/17 03:27:36;;;;;;;1.50;1.40;;;;;;;8.39;100.00;100555.88;7396860;19;20358;-61
2022/09/17 03:30:03;;;;;;;0.60;0.60;;;;;;;8.27;100.00;100550.34;7393030;19;20010;-61
2022/09/17 03:32:29;;;;;;;0.60;0.60;;;;;;;8.57;100.00;100549.78;7397158;19;20007;-62
2022/09/17 03:34:55;;;;;;;0.88;0.80;;;;;;;8.59;100.00;100550.13;7394249;19;20040;-61
2022/09/17 03:37:21;;;;;;;0.95;0.90;;;;;;;8.83;100.00;100547.75;7394426;19;20022;-62
2022/09/17 03:39:47;;;;;;;1.08;0.90;;;;;;;8.55;100.00;100546.66;7394506;19;20018;-61
2022/09/17 03:42:14;;;;;;;4.20;1.50;;;;;;;8.64;100.00;100546.75;7396135;19;20356;-61
2022/09/17 03:44:40;;;;;;;0.90;0.90;;;;;;;8.67;100.00;100542.31;7393026;19;20074;-62
2022/09/17 03:47:06;;;;;;;0.88;0.88;;;;;;;8.71;100.00;100554.88;7390952;19;20015;-61
2022/09/17 03:49:32;;;;;;;1.73;1.23;;;;;;;8.89;100.00;100546.75;7393939;19;20566;-61
2022/09/17 03:51:58;;;;;;;0.88;0.88;;;;;;;8.85;100.00;100548.88;7396267;19;20102;-62
2022/09/17 03:54:24;;;;;;;0.80;0.80;;;;;;;8.71;100.00;100546.53;7394357;19;20049;-61
2022/09/17 03:56:50;;;;;;;1.05;1.00;;;;;;;8.51;100.00;100554.31;7391709;19;20007;-61
2022/09/17 03:59:17;;;;;;;1.35;1.15;;;;;;;8.52;100.00;100547.56;7394265;19;20010;-61
2022/09/17 04:01:43;;;;;;;0.77;0.77;;;;;;;8.58;100.00;100548.53;7392895;19;20080;-61
2022/09/17 04:04:09;;;;;;;2.38;0.73;;;;;;;8.97;100.00;100548.06;7394200;19;20034;-61
2022/09/17 04:06:35;;;;;;;0.73;0.73;;;;;;;9.04;100.00;100550.59;7394409;19;20007;-61
2022/09/17 04:09:03;;;;;;;0.90;0.90;;;;;;;9.26;100.00;100552.66;7393427;19;20017;-62
2022/09/17 04:11:30;;;;;;;0.82;0.82;;;;;;;9.43;100.00;100548.47;7393983;19;20050;-62
2022/09/17 04:13:56;;;;;;;1.08;1.08;;;;;;;9.33;100.00;100552.41;7393879;19;20015;-61
2022/09/17 04:16:22;;;;;;;0.93;0.93;;;;;;;9.02;100.00;100555.81;7391311;19;20018;-61
2022/09/17 04:18:48;;;;;;;0.77;0.77;;;;;;;9.26;100.00;100559.00;7392514;19;20014;-61
2022/09/17 04:21:14;;;;;;;1.05;0.88;;;;;;;8.57;100.00;100551.78;7392171;19;20014;-63
2022/09/17 04:23:40;;;;;;;0.60;0.60;;;;;;;8.58;100.00;100561.63;7396244;19;20035;-63
2022/09/17 04:26:06;;;;;;;3.60;1.63;;;;;;;8.38;100.00;100557.09;7392350;19;20010;-62
2022/09/17 04:28:32;;;;;;;6.32;1.48;;;;;;;8.73;100.00;100552.41;7397425;19;20014;-62
2022/09/17 04:30:58;;;;;;;0.95;0.95;;;;;;;8.28;100.00;100549.09;7393890;19;20014;-62
2022/09/17 04:33:25;;;;;;;1.35;1.35;;;;;;;7.79;100.00;100554.09;7396895;19;20366;-62
2022/09/17 04:35:52;;;;;;;0.70;0.70;;;;;;;8.50;100.00;100550.00;7392524;19;20512;-62
2022/09/17 04:38:19;;;;;;;0.60;0.60;;;;;;;8.44;100.00;100549.00;7392377;19;20014;-61
2022/09/17 04:40:45;;;;;;;0.95;0.95;;;;;;;8.10;100.00;100551.63;7391893;19;20014;-62
2022/09/17 04:43:12;;;;;;;1.13;1.13;;;;;;;8.55;100.00;100549.44;7396863;19;20018;-62
2022/09/17 04:45:38;;;;;;;0.90;0.90;;;;;;;8.45;100.00;100556.09;7392014;19;20030;-61
2022/09/17 04:48:05;;;;;;;3.03;1.42;;;;;;;8.47;100.00;100553.66;7392388;19;20044;-61
2022/09/17 04:50:31;;;;;;;0.43;0.43;;;;;;;8.11;100.00;100556.72;7391523;19;20022;-62
2022/09/17 04:52:57;;;;;;;0.40;0.40;;;;;;;8.42;100.00;100554.22;7395273;19;20022;-62
2022/09/17 04:55:24;;;;;;;1.08;0.85;;;;;;;8.33;100.00;100554.09;7391629;19;20006;-62
2022/09/17 04:57:52;;;;;;;0.82;0.82;;;;;;;8.30;100.00;100550.22;7390419;19;20035;-62
2022/09/17 05:00:20;;;;;;;1.20;1.20;;;;;;;8.29;100.00;100554.19;7392511;19;20332;-62
2022/09/17 05:02:48;;;;;;;6.75;0.98;;;;;;;8.31;100.00;100559.31;7394716;19;20017;-61
2022/09/17 05:05:16;;;;;;;3.20;2.30;;;;;;;8.25;100.00;100558.28;7392270;19;20369;-62
2022/09/17 05:07:42;;;;;;;0.60;0.60;;;;;;;8.29;100.00;100556.22;7391693;19;20433;-62
2022/09/17 05:10:11;;;;;;;0.68;0.68;;;;;;;8.58;100.00;100551.31;7391889;19;20006;-61
2022/09/17 05:12:37;;;;;;;4.38;1.77;;;;;;;8.77;100.00;100555.09;7394832;19;20038;-62
2022/09/17 05:15:04;;;;;;;0.90;0.90;;;;;;;8.80;100.00;100551.41;7391056;19;20014;-62
2022/09/17 05:17:31;;;;;;;0.68;0.68;;;;;;;8.68;100.00;100553.00;7391179;19;20027;-62
2022/09/17 05:19:57;;;;;;;1.20;1.20;;;;;;;8.78;100.00;100540.75;7391023;19;20026;-62
2022/09/17 05:22:23;;;;;;;1.20;1.20;;;;;;;6.71;100.00;100547.47;7391882;19;20414;-61
2022/09/17 05:24:49;;;;;;;0.77;0.77;;;;;;;4.43;100.00;100554.28;7390544;19;20011;-61
2022/09/17 05:27:15;;;;;;;1.27;1.17;;;;;;;2.80;100.00;100571.13;7391466;19;20616;-62
2022/09/17 05:29:41;;;;;;;0.75;0.75;;;;;;;2.03;100.00;100574.41;7391171;19;20018;-61
2022/09/17 05:32:07;;;;;;;0.47;0.47;;;;;;;2.41;100.00;100578.88;7392632;19;20074;-61
2022/09/17 05:34:33;;;;;;;1.30;0.95;;;;;;;3.69;100.00;100576.53;7390131;19;20015;-62
2022/09/17 05:37:03;;;;;;;2.05;0.95;;;;;;;4.92;100.00;100571.25;7388733;19;20047;-62
2022/09/17 05:39:29;;;;;;;0.90;0.90;;;;;;;6.11;100.00;100568.97;7389811;19;20475;-61
2022/09/17 05:41:55;;;;;;;0.98;0.98;;;;;;;8.12;100.00;100561.03;7391157;19;20398;-62
2022/09/17 05:44:22;;;;;;;0.43;0.43;;;;;;;8.26;100.00;100562.63;7390306;19;20090;-61
2022/09/17 05:46:52;;;;;;;0.95;0.95;;;;;;;8.31;100.00;100556.53;7390555;19;20471;-61
2022/09/17 05:49:18;;;;;;;1.30;1.30;;;;;;;8.66;100.00;100552.66;7389727;19;20357;-61
2022/09/17 05:51:44;;;;;;;0.43;0.43;;;;;;;8.86;100.00;100549.63;7388209;19;20015;-62
2022/09/17 05:54:10;;;;;;;0.88;0.88;;;;;;;8.96;100.00;100557.63;7390362;19;20007;-62
2022/09/17 05:56:36;;;;;;;0.80;0.80;;;;;;;8.92;100.00;100559.72;7388323;19;20850;-61
2022/09/17 05:59:02;;;;;;;0.73;0.73;;;;;;;9.26;100.00;100555.44;7390571;19;20018;-62
2022/09/17 06:01:28;;;;;;;0.73;0.73;;;;;;;9.15;100.00;100559.34;7390221;19;20014;-62
2022/09/17 06:03:54;;;;;;;0.55;0.55;;;;;;;9.16;100.00;100563.66;7389890;19;20021;-61
2022/09/17 06:06:21;;;;;;;0.70;0.70;;;;;;;9.18;100.00;100552.88;7389893;19;20018;-61
2022/09/17 06:08:47;;;;;;;1.00;1.00;;;;;;;9.28;100.00;100561.31;7388337;19;20112;-60
2022/09/17 06:11:13;;;;;;;10.25;0.95;;;;;;;9.35;100.00;100564.63;7387782;19;20010;-61
2022/09/17 06:13:39;;;;;;;13.80;1.23;;;;;;;9.12;100.00;100557.47;7393649;19;20463;-60
2022/09/17 06:16:05;;;;;;;3.45;1.40;;;;;;;9.18;100.00;100564.00;7387556;19;20038;-60
2022/09/17 06:18:31;;;;;;;4.38;1.30;;;;;;;9.12;100.00;100560.25;7389738;19;20445;-60
2022/09/17 06:21:02;;;;;;;0.88;0.88;;;;;;;9.32;100.00;100553.63;7389157;19;20051;-60
2022/09/17 06:23:34;;;;;;;1.02;1.02;;;;;;;8.96;100.00;100556.84;7391988;19;20021;-60
2022/09/17 06:26:01;;;;;;;;;;;;;;;3.35;100.00;100578.50;7389991;19;20100;-60
2022/09/17 06:28:28;;;;;;;1.20;1.20;;;;;;;2.12;100.00;100585.75;7393447;19;20314;-60
2022/09/17 06:30:59;;;;;;;0.75;0.75;;;;;;;1.73;100.00;100585.91;7387614;19;20413;-60
2022/09/17 06:33:25;;;;;;;1.85;1.85;;;;;;;1.56;100.00;100585.97;7393251;19;20006;-60
2022/09/17 06:36:03;;;;;;;1.20;0.93;;;;;;;1.49;100.00;100593.03;7388491;19;20014;-60
2022/09/17 06:38:31;;;;;;;1.17;1.17;;;;;;;1.39;100.00;100593.84;7389321;19;20011;-60
2022/09/17 06:40:58;;;;;;;0.90;0.90;;;;;;;1.38;100.00;100592.28;7387680;19;20363;-60
2022/09/17 06:43:24;;;;;;;1.10;1.10;;;;;;;1.33;100.00;100595.44;7393413;19;20003;-60
2022/09/17 06:45:55;;;;;;;1.08;1.08;;;;;;;1.29;100.00;100593.88;7388222;19;20090;-60
2022/09/17 06:48:22;;;;;;;35.10;24.98;;;;;;;1.28;100.00;100598.56;7388821;19;20011;-60
2022/09/17 06:50:49;;;;;;;0.75;0.75;;;;;;;1.34;100.00;100601.69;7388609;19;20015;-60
2022/09/17 06:53:16;;;;;;;0.68;0.68;;;;;;;1.40;100.00;100606.41;7391158;19;20019;-60
2022/09/17 06:55:42;;;;;;;4.05;1.13;;;;;;;1.49;100.00;100608.72;7389965;19;20044;-60
2022/09/17 06:58:10;;;;;;;1.85;1.73;;;;;;;1.63;100.00;100610.63;7388906;19;20015;-60
2022/09/17 07:00:36;;;;;;;3.35;1.70;;;;;;;1.90;100.00;100609.78;7388933;19;20014;-60
2022/09/17 07:03:03;;;;;;;3.78;1.70;;;;;;;2.08;100.00;100606.97;7391336;19;20019;-60
2022/09/17 07:05:31;;;;;;;5.57;2.85;;;;;;;2.25;100.00;100606.09;7389703;19;20018;-60
2022/09/17 07:08:01;;;;;;;3.80;3.50;;;;;;;2.25;100.00;100614.31;7392136;19;20026;-60
2022/09/17 07:10:29;;;;;;;3.42;2.47;;;;;;;2.27;100.00;100620.97;7387275;19;20471;-60
2022/09/17 07:12:55;;;;;;;14.82;3.75;;;;;;;2.26;100.00;100624.13;7390991;19;20018;-60
2022/09/17 07:15:21;;;;;;;11.25;2.08;;;;;;;2.32;100.00;100617.00;7390608;19;20040;-61
2022/09/17 07:17:48;;;;;;;1.58;1.25;;;;;;;2.38;100.00;100620.94;7391981;19;20435;-60
2022/09/17 07:20:14;;;;;;;3.38;2.25;;;;;;;2.41;100.00;100622.84;7389073;19;20034;-60
2022/09/17 07:22:40;;;;;;;2.90;1.73;;;;;;;2.45;100.00;100618.13;7398444;19;20022;-60
2022/09/17 07:25:07;;;;;;;2.00;1.90;;;;;;;2.56;100.00;100621.59;7396317;19;20017;-60
2022/09/17 07:27:33;;;;;;;5.35;1.52;;;;;;;2.61;100.00;100632.16;7397933;19;20493;-60
2022/09/17 07:29:59;;;;;;;4.63;1.90;;;;;;;2.73;100.00;100630.91;7394859;19;20026;-60
2022/09/17 07:32:29;;;;;;;6.20;2.08;;;;;;;2.86;100.00;100634.72;7399490;19;20017;-60
2022/09/17 07:34:55;;;;;;;1.73;1.60;;;;;;;2.94;100.00;100631.53;7395934;19;20034;-60
2022/09/17 07:37:21;;;;;;;1.55;1.48;;;;;;;3.08;100.00;100625.13;7397072;19;20018;-61
2022/09/17 07:39:47;;;;;;;1.98;1.77;;;;;;;3.29;100.00;100624.16;7396532;19;20644;-60
2022/09/17 07:42:13;;;;;;;1.83;1.70;;;;;;;3.41;100.00;100626.41;7396130;19;20010;-60
2022/09/17 07:44:39;;;;;;;2.08;1.30;;;;;;;3.47;100.00;100630.28;7395463;19;20084;-60
2022/09/17 07:47:06;;;;;;;1.90;1.80;;;;;;;3.62;100.00;100637.19;7397180;19;20086;-60
2022/09/17 07:49:32;;;;;;;1.60;1.50;;;;;;;3.78;100.00;100626.41;7398204;19;20024;-60
2022/09/17 07:52:03;;;;;;;2.90;1.52;;;;;;;3.93;100.00;100611.28;7395663;19;20014;-60
2022/09/17 07:54:30;;;;;;;;;;;;;;;4.04;100.00;100619.41;7397661;19;20018;-60
2022/09/17 07:56:56;;;;;;;1.50;1.40;;;;;;;4.10;100.00;100612.25;7391925;19;19949;-60
2022/09/17 07:59:23;;;;;;;1.30;1.30;;;;;;;4.20;100.00;100612.09;7397701;19;20384;-60
2022/09/17 08:01:49;;;;;;;3.03;1.42;;;;;;;4.40;100.00;100607.50;7394775;19;20355;-60
2022/09/17 08:04:16;;;;;;;0.90;0.90;;;;;;;4.48;100.00;100617.22;7392644;19;20025;-60
2022/09/17 08:06:42;;;;;;;1.38;1.38;;;;;;;4.71;100.00;100613.75;7393962;19;20034;-60
2022/09/17 08:09:09;;;;;;;2.90;1.27;;;;;;;4.77;100.00;100612.09;7393812;19;20010;-60
2022/09/17 08:11:35;;;;;;;2.47;1.88;;;;;;;4.98;100.00;100606.22;7393529;19;20010;-60
2022/09/17 08:14:02;;;;;;;1.77;1.40;;;;;;;5.24;100.00;100604.63;7393242;19;20021;-60
2022/09/17 08:16:29;;;;;;;7.03;2.17;;;;;;;5.43;100.00;100598.34;7389540;19;20374;-60
2022/09/17 08:18:56;;;;;;;1.40;1.25;;;;;;;5.65;100.00;100599.50;7392891;19;20058;-60
2022/09/17 08:21:23;;;;;;;4.85;0.95;;;;;;;5.93;100.00;100598.22;7392977;19;20011;-60
2022/09/17 08:23:49;;;;;;;4.97;0.93;;;;;;;6.24;100.00;100601.53;7394615;19;20018;-60
2022/09/17 08:26:21;;;;;;;0.70;0.70;;;;;;;6.47;100.00;100599.41;7395727;19;20421;-60
2022/09/17 08:28:49;;;;;;;1.70;0.95;;;;;;;6.55;100.00;100603.56;7398451;19;20025;-60
2022/09/17 08:31:17;;;;;;;1.23;0.80;;;;;;;6.66;100.00;100604.13;7392531;19;20531;-60
2022/09/17 08:33:44;;;;;;;0.40;0.40;;;;;;;6.82;100.00;100608.91;7389778;19;20022;-60
2022/09/17 08:36:13;;;;;;;0.60;0.60;;;;;;;7.08;100.00;100620.94;7391806;19;20339;-60
2022/09/17 08:38:40;;;;;;;2.70;1.10;;;;;;;7.19;100.00;100621.44;7392737;19;20018;-60
2022/09/17 08:41:09;;;;;;;1.40;0.88;;;;;;;7.30;100.00;100611.63;7392347;19;20361;-60
2022/09/17 08:43:42;;;;;;;0.77;0.77;;;;;;;7.43;100.00;100615.25;7395311;19;20014;-60
2022/09/17 08:46:09;;;;;;;0.38;0.38;;;;;;;7.59;100.00;100614.44;7392684;19;20014;-59
2022/09/17 08:48:41;;;;;;;0.63;0.40;;;;;;;7.74;100.00;100606.50;7392578;19;20022;-60
2022/09/17 08:51:40;;;;;;;0.52;0.52;;;;;;;7.83;100.00;100607.44;7392252;19;20428;-60
2022/09/17 08:54:12;;;;;;;0.25;0.25;;;;;;;8.02;100.00;100612.06;7391484;19;20014;-59
2022/09/17 08:56:40;;;;;;;0.50;0.50;;;;;;;8.17;100.00;100607.66;7390730;19;20743;-59
2022/09/17 08:59:29;;;;;;;0.52;0.52;;;;;;;8.28;100.00;100599.81;7391590;19;20340;-60
2022/09/17 09:02:02;;;;;;;1.20;0.38;;;;;;;8.43;100.00;100594.63;7393029;19;20463;-60
2022/09/17 09:04:38;;;;;;;1.70;0.45;;;;;;;8.49;100.00;100609.50;7391577;19;20023;-59
2022/09/17 09:07:12;;;;;;;0.70;0.70;;;;;;;8.59;100.00;100610.41;7391258;19;20474;-60
2022/09/17 09:09:48;;;;;;;1.20;0.63;;;;;;;8.72;100.00;100598.09;7390396;19;20473;-60
2022/09/17 09:12:24;;;;;;;0.82;0.80;;;;;;;8.84;100.00;100604.84;7393676;19;20041;-59
2022/09/17 09:14:58;;;;;;;0.20;0.20;;;;;;;8.92;100.00;100606.19;7391864;19;20013;-59
2022/09/17 09:17:37;;;;;;;0.30;0.30;;;;;;;8.91;100.00;100602.63;7390388;19;20399;-60
2022/09/17 09:20:04;;;;;;;0.30;0.30;;;;;;;9.07;100.00;100602.47;7391517;19;20015;-60
2022/09/17 09:22:46;;;;;;;0.32;0.32;;;;;;;9.21;100.00;100600.44;7393493;19;20034;-60
2022/09/17 09:25:28;;;;;;;0.75;0.57;;;;;;;9.39;100.00;100595.06;7391809;19;20018;-60
2022/09/17 09:28:35;;;;;;;0.45;0.45;;;;;;;9.64;100.00;100594.97;7392737;19;20475;-60
2022/09/17 09:31:20;;;;;;;0.40;0.40;;;;;;;10.00;100.00;100594.50;7389232;19;20038;-60
2022/09/17 09:33:48;;;;;;;5.38;0.82;;;;;;;10.20;100.00;100586.63;7390859;19;20014;-60
2022/09/17 09:36:20;;;;;;;1.05;0.85;;;;;;;10.39;100.00;100586.25;7388447;19;20034;-60
2022/09/17 09:38:55;;;;;;;0.30;0.30;;;;;;;10.54;100.00;100580.91;7391476;19;20010;-60
2022/09/17 09:41:28;;;;;;;0.30;0.30;;;;;;;10.61;100.00;100584.19;7390979;19;20018;-60
2022/09/17 09:44:09;;;;;;;0.32;0.32;;;;;;;10.72;100.00;100583.75;7390856;19;20018;-61
2022/09/17 09:47:08;;;;;;;0.38;0.38;;;;;;;10.86;100.00;100587.97;7390647;19;20002;-60
2022/09/17 09:49:43;;;;;;;0.55;0.20;;;;;;;10.97;100.00;100585.53;7390903;19;20653;-61
2022/09/17 09:52:37;;;;;;;0.73;0.25;;;;;;;11.18;100.00;100598.59;7391166;19;20015;-60
2022/09/17 09:55:42;;;;;;;0.30;0.30;;;;;;;11.41;100.00;100598.78;7390135;19;20021;-61
2022/09/17 09:58:35;;;;;;;0.65;0.20;;;;;;;11.67;100.00;100588.16;7390381;19;20510;-61
2022/09/17 10:01:10;;;;;;;1.05;0.63;;;;;;;11.67;100.00;100582.56;7389696;19;20046;-60
2022/09/17 10:03:42;;;;;;;0.80;0.35;;;;;;;11.69;100.00;100577.31;7394043;19;20018;-61
2022/09/17 10:06:10;;;;;;;1.10;0.60;;;;;;;11.76;100.00;100590.91;7390042;19;20022;-61
2022/09/17 10:08:39;;;;;;;0.50;0.50;;;;;;;11.85;100.00;100593.72;7389253;19;20049;-61
2022/09/17 10:11:11;;;;;;;0.60;0.47;;;;;;;11.91;100.00;100600.22;7389310;19;20007;-60
2022/09/17 10:13:39;;;;;;;0.25;0.25;;;;;;;11.93;100.00;100603.31;7394877;19;20017;-60
2022/09/17 10:16:17;;;;;;;0.65;0.63;;;;;;;11.91;100.00;100605.78;7388415;19;20490;-60
2022/09/17 10:18:45;;;;;;;0.13;0.13;;;;;;;12.04;100.00;100602.84;7390162;19;20774;-61
2022/09/17 10:21:29;;;;;;;0.10;0.10;;;;;;;12.13;100.00;100603.59;7387816;19;20014;-61
2022/09/17 10:23:55;;;;;;;0.20;0.20;;;;;;;12.22;100.00;100602.03;7389978;19;20044;-61
2022/09/17 10:26:25;;;;;;;0.40;0.30;;;;;;;12.37;100.00;100611.31;7389254;19;20015;-60
2022/09/17 10:28:57;;;;;;;0.43;0.43;;;;;;;12.40;100.00;100602.00;7390135;19;20031;-61
2022/09/17 10:31:23;;;;;;;1.20;0.28;;;;;;;12.47;100.00;100594.06;7388300;19;20014;-61
2022/09/17 10:33:59;;;;;;;4.95;0.25;;;;;;;12.50;100.00;100597.91;7388201;19;20037;-60
2022/09/17 10:36:42;;;;;;;0.73;0.20;;;;;;;12.61;100.00;100595.41;7385009;19;20099;-61
2022/09/17 10:39:43;;;;;;;0.20;0.20;;;;;;;12.67;100.00;100599.88;7388176;19;20014;-61
2022/09/17 10:42:14;;;;;;;0.20;0.20;;;;;;;12.75;100.00;100591.94;7390421;19;20054;-61
2022/09/17 10:44:55;;;;;;;0.30;0.30;;;;;;;12.80;100.00;100599.66;7388746;19;20774;-61
2022/09/17 10:47:29;;;;;;;0.35;0.35;;;;;;;12.85;100.00;100594.22;7386933;19;20023;-61
2022/09/17 10:50:00;;;;;;;0.10;0.10;;;;;;;12.92;100.00;100593.09;7387096;19;20015;-60
2022/09/17 10:52:34;;;;;;;0.47;0.47;;;;;;;13.05;100.00;100588.09;7389938;19;20059;-60
2022/09/17 10:55:15;;;;;;;0.35;0.35;;;;;;;13.14;100.00;100587.25;7388231;19;20038;-61
2022/09/17 10:58:06;;;;;;;1.05;0.40;;;;;;;13.24;100.00;100581.13;7394673;19;20738;-64
2022/09/17 11:00:59;;;;;;;0.20;0.20;;;;;;;13.45;100.00;100580.03;7395316;19;20011;-60
2022/09/17 11:03:47;;;;;;;0.40;0.25;;;;;;;13.44;100.00;100570.13;7400309;19;20508;-60
2022/09/17 11:06:51;;;;;;;0.25;0.13;;;;;;;13.55;100.00;100572.38;7395821;19;20029;-60
2022/09/17 11:09:36;;;;;;;0.50;0.15;;;;;;;13.64;100.00;100584.25;7395152;19;20015;-60
2022/09/17 11:12:05;;;;;;;0.20;0.10;;;;;;;13.75;100.00;100574.53;7395771;19;20011;-60
2022/09/17 11:14:50;;;;;;;0.10;0.10;;;;;;;13.81;100.00;100569.81;7398028;19;20380;-60
2022/09/17 11:17:45;;;;;;;0.30;0.30;;;;;;;13.89;100.00;100573.78;7394539;19;20010;-60
2022/09/17 11:20:24;;;;;;;0.70;0.30;;;;;;;13.73;100.00;100571.44;7399506;19;20018;-60
2022/09/17 11:22:50;;;;;;;0.40;0.10;;;;;;;13.73;100.00;100571.44;7397868;19;20022;-61
2022/09/17 11:25:37;;;;;;;0.22;0.17;;;;;;;13.77;100.00;100563.63;7396792;19;20031;-61
2022/09/17 11:28:31;;;;;;;0.10;0.10;;;;;;;13.85;100.00;100568.38;7397602;19;20020;-61
2022/09/17 11:31:18;;;;;;;1.17;0.17;;;;;;;13.96;100.00;100562.19;7394735;19;20042;-61
2022/09/17 11:33:55;;;;;;;0.95;0.10;;;;;;;14.08;100.00;100561.13;7392492;19;20570;-61
2022/09/17 11:36:28;;;;;;;0.47;0.28;;;;;;;14.21;100.00;100558.81;7392072;19;20015;-61
2022/09/17 11:39:03;;;;;;;0.20;0.20;;;;;;;14.36;100.00;100556.81;7395242;19;20010;-60
2022/09/17 11:41:40;;;;;;;3.20;0.28;;;;;;;14.41;100.00;100554.09;7394802;19;20015;-60
2022/09/17 11:44:25;;;;;;;1.10;0.28;;;;;;;14.42;100.00;100554.88;7393946;19;20034;-60
2022/09/17 11:46:51;;;;;;;0.10;0.10;;;;;;;14.45;100.00;100548.28;7394072;19;20015;-60